sensor_id;sensor_type;location;lat;lon;timestamp;pressure;altitude;pressure_sealevel;temperature;humidity
75585;BME280;64162;53.508;10.476;2023-02-28T00:01:30;102699.31;;;2.03;67.57
75585;BME280;64162;53.508;10.476;2023-02-28T00:03:58;102706.34;;;1.94;67.26
75585;BME280;64162;53.508;10.476;2023-02-28T00:06:24;102704.63;;;1.93;68.04
75585;BME280;64162;53.508;10.476;2023-02-28T00:08:51;102705.53;;;1.89;68.09
75585;BME280;64162;53.508;10.476;2023-02-28T00:11:18;102706.53;;;1.76;67.65
75585;BME280;64162;53.508;10.476;2023-02-28T00:13:46;102713.59;;;1.67;67.48
75585;BME280;64162;53.508;10.476;2023-02-28T00:16:20;102691.19;;;1.55;67.56
75585;BME280;64162;53.508;10.476;2023-02-28T00:18:48;102702.53;;;1.48;67.68
75585;BME280;64162;53.508;10.476;2023-02-28T00:21:16;102702.63;;;1.36;67.69
75585;BME280;64162;53.508;10.476;2023-02-28T00:23:43;102712.16;;;1.33;68.21
75585;BME280;64162;53.508;10.476;2023-02-28T00:26:10;102707.91;;;1.25;67.69
75585;BME280;64162;53.508;10.476;2023-02-28T00:28:37;102699.38;;;1.15;68.00
75585;BME280;64162;53.508;10.476;2023-02-28T00:31:04;102689.91;;;1.07;67.83
75585;BME280;64162;53.508;10.476;2023-02-28T00:33:31;102698.63;;;0.99;68.46
75585;BME280;64162;53.508;10.476;2023-02-28T00:36:07;102703.88;;;0.92;68.64
75585;BME280;64162;53.508;10.476;2023-02-28T00:38:35;102703.03;;;0.88;68.89
75585;BME280;64162;53.508;10.476;2023-02-28T00:41:02;102702.19;;;0.83;68.54
75585;BME280;64162;53.508;10.476;2023-02-28T00:43:33;102709.16;;;0.74;68.69
75585;BME280;64162;53.508;10.476;2023-02-28T00:46:00;102707.47;;;0.66;68.60
75585;BME280;64162;53.508;10.476;2023-02-28T00:48:26;102715.28;;;0.63;68.79
75585;BME280;64162;53.508;10.476;2023-02-28T00:50:53;102717.03;;;0.60;69.41
75585;BME280;64162;53.508;10.476;2023-02-28T00:53:20;102713.56;;;0.59;69.49
75585;BME280;64162;53.508;10.476;2023-02-28T00:55:49;102720.53;;;0.57;69.28
75585;BME280;64162;53.508;10.476;2023-02-28T00:58:16;102713.63;;;0.55;70.35
75585;BME280;64162;53.508;10.476;2023-02-28T01:00:43;102711.06;;;0.47;69.85
75585;BME280;64162;53.508;10.476;2023-02-28T01:03:12;102719.72;;;0.45;69.07
75585;BME280;64162;53.508;10.476;2023-02-28T01:05:38;102724.06;;;0.44;69.98
75585;BME280;64162;53.508;10.476;2023-02-28T01:08:05;102723.22;;;0.41;69.93
75585;BME280;64162;53.508;10.476;2023-02-28T01:10:32;102708.53;;;0.38;69.85
75585;BME280;64162;53.508;10.476;2023-02-28T01:12:59;102722.38;;;0.34;69.68
75585;BME280;64162;53.508;10.476;2023-02-28T01:15:26;102724.13;;;0.29;70.16
75585;BME280;64162;53.508;10.476;2023-02-28T01:17:52;102727.56;;;0.28;70.06
75585;BME280;64162;53.508;10.476;2023-02-28T01:20:21;102723.25;;;0.28;69.80
75585;BME280;64162;53.508;10.476;2023-02-28T01:22:47;102723.25;;;0.30;70.30
75585;BME280;64162;53.508;10.476;2023-02-28T01:25:14;102720.66;;;0.30;69.65
75585;BME280;64162;53.508;10.476;2023-02-28T01:27:41;102724.94;;;0.39;70.56
75585;BME280;64162;53.508;10.476;2023-02-28T01:30:09;102720.63;;;0.39;70.28
75585;BME280;64162;53.508;10.476;2023-02-28T01:32:36;102726.69;;;0.30;69.85
75585;BME280;64162;53.508;10.476;2023-02-28T01:35:03;102718.94;;;0.24;70.16
75585;BME280;64162;53.508;10.476;2023-02-28T01:37:30;102716.38;;;0.20;69.52
75585;BME280;64162;53.508;10.476;2023-02-28T01:39:56;102712.09;;;0.11;69.59
75585;BME280;64162;53.508;10.476;2023-02-28T01:42:23;102713.84;;;0.06;69.49
75585;BME280;64162;53.508;10.476;2023-02-28T01:44:58;102714.69;;;0.07;69.69
75585;BME280;64162;53.508;10.476;2023-02-28T01:47:28;102717.28;;;0.02;70.17
75585;BME280;64162;53.508;10.476;2023-02-28T01:49:57;102713.03;;;-0.10;69.72
75585;BME280;64162;53.508;10.476;2023-02-28T01:52:24;102714.78;;;-0.10;69.27
75585;BME280;64162;53.508;10.476;2023-02-28T01:54:55;102712.19;;;-0.16;69.98
75585;BME280;64162;53.508;10.476;2023-02-28T01:57:27;102714.78;;;-0.19;69.37
75585;BME280;64162;53.508;10.476;2023-02-28T02:00:00;102715.66;;;-0.17;70.05
75585;BME280;64162;53.508;10.476;2023-02-28T02:02:38;102713.94;;;-0.20;70.39
75585;BME280;64162;53.508;10.476;2023-02-28T02:05:12;102713.06;;;-0.22;69.66
75585;BME280;64162;53.508;10.476;2023-02-28T02:07:43;102712.22;;;-0.22;69.73
75585;BME280;64162;53.508;10.476;2023-02-28T02:10:21;102706.19;;;-0.27;69.95
75585;BME280;64162;53.508;10.476;2023-02-28T02:15:28;102702.75;;;-0.37;70.20
75585;BME280;64162;53.508;10.476;2023-02-28T02:18:04;102706.19;;;-0.43;70.57
75585;BME280;64162;53.508;10.476;2023-02-28T02:25:58;102706.22;;;-0.53;69.79
75585;BME280;64162;53.508;10.476;2023-02-28T02:34:10;102701.94;;;-0.67;70.27
75585;BME280;64162;53.508;10.476;2023-02-28T02:37:14;102701.94;;;-0.67;70.90
75585;BME280;64162;53.508;10.476;2023-02-28T02:40:04;102702.81;;;-0.71;70.10
75585;BME280;64162;53.508;10.476;2023-02-28T02:45:46;102708.84;;;-0.73;69.83
75585;BME280;64162;53.508;10.476;2023-02-28T02:48:17;102711.41;;;-0.79;70.47
75585;BME280;64162;53.508;10.476;2023-02-28T02:50:57;102711.41;;;-0.81;69.92
75585;BME280;64162;53.508;10.476;2023-02-28T02:53:32;102706.25;;;-0.84;70.04
75585;BME280;64162;53.508;10.476;2023-02-28T02:56:01;102704.53;;;-0.88;69.87
75585;BME280;64162;53.508;10.476;2023-02-28T02:58:35;102709.69;;;-0.88;69.69
75585;BME280;64162;53.508;10.476;2023-02-28T03:01:12;102711.41;;;-0.91;69.98
75585;BME280;64162;53.508;10.476;2023-02-28T03:03:42;102699.34;;;-0.97;69.87
75585;BME280;64162;53.508;10.476;2023-02-28T03:06:09;102707.97;;;-1.00;69.80
75585;BME280;64162;53.508;10.476;2023-02-28T03:08:37;102701.06;;;-1.04;69.71
75585;BME280;64162;53.508;10.476;2023-02-28T03:11:09;102702.78;;;-1.09;70.13
75585;BME280;64162;53.508;10.476;2023-02-28T03:14:09;102706.22;;;-1.08;70.23
75585;BME280;64162;53.508;10.476;2023-02-28T03:17:05;102708.81;;;-1.14;70.09
75585;BME280;64162;53.508;10.476;2023-02-28T03:19:45;102704.50;;;-1.23;70.41
75585;BME280;64162;53.508;10.476;2023-02-28T03:22:33;102710.53;;;-1.22;70.17
75585;BME280;64162;53.508;10.476;2023-02-28T03:25:12;102710.53;;;-1.24;70.09
75585;BME280;64162;53.508;10.476;2023-02-28T03:30:38;102709.66;;;-1.32;70.40
75585;BME280;64162;53.508;10.476;2023-02-28T03:35:45;102714.84;;;-1.30;70.72
75585;BME280;64162;53.508;10.476;2023-02-28T03:38:19;102714.84;;;-1.29;70.95
75585;BME280;64162;53.508;10.476;2023-02-28T03:40:51;102717.41;;;-1.34;70.56
75585;BME280;64162;53.508;10.476;2023-02-28T03:43:26;102720.88;;;-1.30;69.72
75585;BME280;64162;53.508;10.476;2023-02-28T03:45:55;102718.28;;;-1.35;69.76
75585;BME280;64162;53.508;10.476;2023-02-28T03:48:31;102720.84;;;-1.38;69.64
75585;BME280;64162;53.508;10.476;2023-02-28T03:51:02;102715.69;;;-1.38;70.00
75585;BME280;64162;53.508;10.476;2023-02-28T03:53:36;102722.56;;;-1.40;70.32
75585;BME280;64162;53.508;10.476;2023-02-28T03:59:04;102712.22;;;-1.46;69.89
75585;BME280;64162;53.508;10.476;2023-02-28T04:01:35;102716.50;;;-1.49;70.39
75585;BME280;64162;53.508;10.476;2023-02-28T04:04:04;102713.91;;;-1.48;70.07
75585;BME280;64162;53.508;10.476;2023-02-28T04:06:32;102721.69;;;-1.46;69.55
75585;BME280;64162;53.508;10.476;2023-02-28T04:09:00;102719.09;;;-1.51;70.05
75585;BME280;64162;53.508;10.476;2023-02-28T04:13:53;102716.47;;;-1.61;69.62
75585;BME280;64162;53.508;10.476;2023-02-28T04:16:20;102721.63;;;-1.63;70.40
75585;BME280;64162;53.508;10.476;2023-02-28T04:19:00;102722.47;;;-1.67;70.38
75585;BME280;64162;53.508;10.476;2023-02-28T04:23:59;102717.28;;;-1.76;70.05
75585;BME280;64162;53.508;10.476;2023-02-28T04:26:34;102727.63;;;-1.70;70.40
75585;BME280;64162;53.508;10.476;2023-02-28T04:29:04;102713.84;;;-1.75;70.99
75585;BME280;64162;53.508;10.476;2023-02-28T04:31:31;102720.72;;;-1.71;71.00
75585;BME280;64162;53.508;10.476;2023-02-28T04:33:59;102712.09;;;-1.73;70.51
75585;BME280;64162;53.508;10.476;2023-02-28T04:36:25;102710.41;;;-1.74;70.13
75585;BME280;64162;53.508;10.476;2023-02-28T04:38:52;102718.16;;;-1.77;69.78
75585;BME280;64162;53.508;10.476;2023-02-28T04:41:21;102719.00;;;-1.78;69.83
75585;BME280;64162;53.508;10.476;2023-02-28T04:43:51;102722.47;;;-1.76;69.21
75585;BME280;64162;53.508;10.476;2023-02-28T04:46:18;102719.88;;;-1.79;69.54
75585;BME280;64162;53.508;10.476;2023-02-28T04:48:46;102719.00;;;-1.80;69.66
75585;BME280;64162;53.508;10.476;2023-02-28T04:51:15;102722.44;;;-1.79;69.91
75585;BME280;64162;53.508;10.476;2023-02-28T04:53:42;102724.16;;;-1.81;69.26
75585;BME280;64162;53.508;10.476;2023-02-28T04:56:15;102723.28;;;-1.85;68.77
75585;BME280;64162;53.508;10.476;2023-02-28T04:58:42;102724.16;;;-1.80;68.87
75585;BME280;64162;53.508;10.476;2023-02-28T05:01:26;102725.88;;;-1.73;68.27
75585;BME280;64162;53.508;10.476;2023-02-28T05:03:56;102732.81;;;-1.66;68.23
75585;BME280;64162;53.508;10.476;2023-02-28T05:06:25;102723.34;;;-1.62;68.47
75585;BME280;64162;53.508;10.476;2023-02-28T05:08:52;102727.66;;;-1.58;68.09
75585;BME280;64162;53.508;10.476;2023-02-28T05:11:20;102732.84;;;-1.58;68.17
75585;BME280;64162;53.508;10.476;2023-02-28T05:13:48;102725.09;;;-1.56;68.29
75585;BME280;64162;53.508;10.476;2023-02-28T05:16:15;102730.25;;;-1.59;67.80
75585;BME280;64162;53.508;10.476;2023-02-28T05:18:42;102736.28;;;-1.59;68.04
75585;BME280;64162;53.508;10.476;2023-02-28T05:21:34;102740.56;;;-1.62;67.92
75585;BME280;64162;53.508;10.476;2023-02-28T05:24:11;102735.41;;;-1.62;67.36
75585;BME280;64162;53.508;10.476;2023-02-28T05:26:41;102736.25;;;-1.65;67.65
75585;BME280;64162;53.508;10.476;2023-02-28T05:29:09;102732.78;;;-1.70;67.45
75585;BME280;64162;53.508;10.476;2023-02-28T05:31:37;102741.41;;;-1.71;68.17
75585;BME280;64162;53.508;10.476;2023-02-28T05:34:04;102735.38;;;-1.75;67.69
75585;BME280;64162;53.508;10.476;2023-02-28T05:36:31;102744.81;;;-1.83;67.46
75585;BME280;64162;53.508;10.476;2023-02-28T05:38:58;102738.75;;;-1.89;67.53
75585;BME280;64162;53.508;10.476;2023-02-28T05:41:25;102737.88;;;-1.94;67.38
75585;BME280;64162;53.508;10.476;2023-02-28T05:43:52;102743.88;;;-1.95;68.19
75585;BME280;64162;53.508;10.476;2023-02-28T05:46:19;102743.84;;;-2.00;69.24
75585;BME280;64162;53.508;10.476;2023-02-28T05:48:47;102744.72;;;-2.03;68.27
75585;BME280;64162;53.508;10.476;2023-02-28T05:51:15;102749.84;;;-2.06;68.50
75585;BME280;64162;53.508;10.476;2023-02-28T05:53:41;102748.97;;;-2.08;68.51
75585;BME280;64162;53.508;10.476;2023-02-28T05:56:08;102746.34;;;-2.15;70.16
75585;BME280;64162;53.508;10.476;2023-02-28T05:58:35;102752.41;;;-2.12;69.19
75585;BME280;64162;53.508;10.476;2023-02-28T06:01:20;102754.09;;;-2.15;68.65
75585;BME280;64162;53.508;10.476;2023-02-28T06:03:47;102753.22;;;-2.16;68.27
75585;BME280;64162;53.508;10.476;2023-02-28T06:06:14;102751.47;;;-2.20;68.45
75585;BME280;64162;53.508;10.476;2023-02-28T06:08:41;102746.31;;;-2.20;68.44
75585;BME280;64162;53.508;10.476;2023-02-28T06:11:09;102751.47;;;-2.21;68.46
75585;BME280;64162;53.508;10.476;2023-02-28T06:13:36;102750.59;;;-2.25;67.85
75585;BME280;64162;53.508;10.476;2023-02-28T06:16:03;102760.94;;;-2.23;68.31
75585;BME280;64162;53.508;10.476;2023-02-28T06:18:30;102759.22;;;-2.20;68.77
75585;BME280;64162;53.508;10.476;2023-02-28T06:20:57;102765.22;;;-2.22;68.27
75585;BME280;64162;53.508;10.476;2023-02-28T06:23:23;102766.97;;;-2.21;68.58
75585;BME280;64162;53.508;10.476;2023-02-28T06:25:50;102771.25;;;-2.22;68.47
75585;BME280;64162;53.508;10.476;2023-02-28T06:28:17;102776.44;;;-2.20;67.93
75585;BME280;64162;53.508;10.476;2023-02-28T06:30:43;102774.75;;;-2.14;67.39
75585;BME280;64162;53.508;10.476;2023-02-28T06:33:12;102772.22;;;-2.09;67.85
75585;BME280;64162;53.508;10.476;2023-02-28T06:35:38;102775.69;;;-2.04;67.71
75585;BME280;64162;53.508;10.476;2023-02-28T06:38:05;102780.91;;;-1.96;67.67
75585;BME280;64162;53.508;10.476;2023-02-28T06:40:32;102779.19;;;-1.94;67.89
75585;BME280;64162;53.508;10.476;2023-02-28T06:43:02;102777.53;;;-1.85;67.85
75585;BME280;64162;53.508;10.476;2023-02-28T06:45:28;102779.31;;;-1.67;67.20
75585;BME280;64162;53.508;10.476;2023-02-28T06:47:55;102782.94;;;-1.22;66.47
75585;BME280;64162;53.508;10.476;2023-02-28T06:50:24;102773.53;;;-0.73;67.41
75585;BME280;64162;53.508;10.476;2023-02-28T06:52:51;102786.47;;;-0.32;66.42
75585;BME280;64162;53.508;10.476;2023-02-28T06:55:20;102773.38;;;0.21;67.26
75585;BME280;64162;53.508;10.476;2023-02-28T06:57:47;102779.22;;;0.69;66.98
75585;BME280;64162;53.508;10.476;2023-02-28T07:00:14;102779.88;;;1.08;66.41
75585;BME280;64162;53.508;10.476;2023-02-28T07:02:40;102797.72;;;1.53;66.09
75585;BME280;64162;53.508;10.476;2023-02-28T07:05:07;102789.47;;;1.99;66.11
75585;BME280;64162;53.508;10.476;2023-02-28T07:07:37;102782.94;;;2.40;65.49
75585;BME280;64162;53.508;10.476;2023-02-28T07:10:07;102783.28;;;2.83;65.20
75585;BME280;64162;53.508;10.476;2023-02-28T07:12:45;102793.09;;;3.24;64.91
75585;BME280;64162;53.508;10.476;2023-02-28T07:15:28;102779.94;;;3.31;63.71
75585;BME280;64162;53.508;10.476;2023-02-28T07:18:04;102782.84;;;3.12;64.10
75585;BME280;64162;53.508;10.476;2023-02-28T07:31:04;102780.66;;;2.15;62.50
75585;BME280;64162;53.508;10.476;2023-02-28T07:34:28;102785.16;;;1.99;62.44
75585;BME280;64162;53.508;10.476;2023-02-28T07:37:25;102790.50;;;1.81;64.02
75585;BME280;64162;53.508;10.476;2023-02-28T07:40:39;102787.09;;;1.76;64.43
75585;BME280;64162;53.508;10.476;2023-02-28T07:43:26;102796.66;;;1.74;64.96
75585;BME280;64162;53.508;10.476;2023-02-28T07:46:18;102799.28;;;1.73;65.64
75585;BME280;64162;53.508;10.476;2023-02-28T07:49:16;102799.28;;;1.73;66.02
75585;BME280;64162;53.508;10.476;2023-02-28T07:51:46;102800.19;;;1.70;65.95
75585;BME280;64162;53.508;10.476;2023-02-28T07:54:26;102797.56;;;1.73;65.85
75585;BME280;64162;53.508;10.476;2023-02-28T07:56:58;102797.50;;;1.75;65.88
75585;BME280;64162;53.508;10.476;2023-02-28T07:59:31;102798.38;;;1.75;66.64
75585;BME280;64162;53.508;10.476;2023-02-28T08:01:59;102800.94;;;1.78;66.71
75585;BME280;64162;53.508;10.476;2023-02-28T08:04:31;102799.19;;;1.82;67.03
75585;BME280;64162;53.508;10.476;2023-02-28T08:06:58;102800.03;;;1.84;66.63
75585;BME280;64162;53.508;10.476;2023-02-28T08:09:25;102790.50;;;1.84;67.27
75585;BME280;64162;53.508;10.476;2023-02-28T08:11:52;102790.47;;;1.86;67.14
75585;BME280;64162;53.508;10.476;2023-02-28T08:14:19;102791.31;;;1.89;67.51
75585;BME280;64162;53.508;10.476;2023-02-28T08:16:46;102793.84;;;1.95;67.71
75585;BME280;64162;53.508;10.476;2023-02-28T08:19:12;102798.94;;;2.06;68.33
75585;BME280;64162;53.508;10.476;2023-02-28T08:21:39;102788.47;;;2.14;67.52
75585;BME280;64162;53.508;10.476;2023-02-28T08:24:06;102804.03;;;2.17;67.59
75585;BME280;64162;53.508;10.476;2023-02-28T08:26:33;102800.50;;;2.24;67.34
75585;BME280;64162;53.508;10.476;2023-02-28T08:29:00;102804.78;;;2.29;67.83
75585;BME280;64162;53.508;10.476;2023-02-28T08:31:27;102808.22;;;2.30;67.88
75585;BME280;64162;53.508;10.476;2023-02-28T08:33:54;102800.28;;;2.39;67.91
75585;BME280;64162;53.508;10.476;2023-02-28T08:36:23;102809.81;;;2.40;67.23
75585;BME280;64162;53.508;10.476;2023-02-28T08:38:50;102805.38;;;2.50;67.65
75585;BME280;64162;53.508;10.476;2023-02-28T08:41:17;102811.34;;;2.58;67.21
75585;BME280;64162;53.508;10.476;2023-02-28T08:43:43;102815.63;;;2.62;67.36
75585;BME280;64162;53.508;10.476;2023-02-28T08:46:12;102819.00;;;2.72;67.69
75585;BME280;64162;53.508;10.476;2023-02-28T08:48:39;102809.38;;;2.78;67.60
75585;BME280;64162;53.508;10.476;2023-02-28T08:51:09;102811.94;;;2.80;66.83
75585;BME280;64162;53.508;10.476;2023-02-28T08:53:38;102809.28;;;2.86;67.28
75585;BME280;64162;53.508;10.476;2023-02-28T08:56:11;102814.38;;;2.90;67.23
75585;BME280;64162;53.508;10.476;2023-02-28T08:58:38;102817.78;;;2.95;67.65
75585;BME280;64162;53.508;10.476;2023-02-28T09:01:20;102813.34;;;3.02;66.56
75585;BME280;64162;53.508;10.476;2023-02-28T09:03:49;102806.41;;;3.03;66.82
75585;BME280;64162;53.508;10.476;2023-02-28T09:06:17;102816.69;;;3.13;66.77
75585;BME280;64162;53.508;10.476;2023-02-28T09:08:45;102808.72;;;3.24;67.16
75585;BME280;64162;53.508;10.476;2023-02-28T09:11:12;102813.81;;;3.30;66.10
75585;BME280;64162;53.508;10.476;2023-02-28T09:13:39;102812.91;;;3.34;65.84
75585;BME280;64162;53.508;10.476;2023-02-28T09:16:09;102817.19;;;3.38;65.88
75585;BME280;64162;53.508;10.476;2023-02-28T09:18:38;102816.25;;;3.42;66.32
75585;BME280;64162;53.508;10.476;2023-02-28T09:21:06;102821.56;;;3.35;65.84
75585;BME280;64162;53.508;10.476;2023-02-28T09:23:33;102820.28;;;3.60;65.86
75585;BME280;64162;53.508;10.476;2023-02-28T09:26:02;102818.47;;;3.65;65.98
75585;BME280;64162;53.508;10.476;2023-02-28T09:28:29;102822.75;;;3.68;65.09
75585;BME280;64162;53.508;10.476;2023-02-28T09:30:56;102827.91;;;3.72;65.39
75585;BME280;64162;53.508;10.476;2023-02-28T09:33:25;102825.31;;;3.71;65.37
75585;BME280;64162;53.508;10.476;2023-02-28T09:35:59;102821.72;;;3.78;64.86
75585;BME280;64162;53.508;10.476;2023-02-28T09:38:27;102823.63;;;3.68;64.72
75585;BME280;64162;53.508;10.476;2023-02-28T09:41:03;102827.09;;;3.69;65.14
75585;BME280;64162;53.508;10.476;2023-02-28T09:43:35;102833.50;;;4.00;65.00
75585;BME280;64162;53.508;10.476;2023-02-28T09:48:48;102824.56;;;4.13;62.52
75585;BME280;64162;53.508;10.476;2023-02-28T09:51:28;102829.59;;;4.22;61.81
75585;BME280;64162;53.508;10.476;2023-02-28T09:53:56;102829.53;;;4.27;62.52
75585;BME280;64162;53.508;10.476;2023-02-28T09:56:36;102823.47;;;4.25;62.65
75585;BME280;64162;53.508;10.476;2023-02-28T10:06:52;102838.78;;;4.43;59.64
75585;BME280;64162;53.508;10.476;2023-02-28T10:09:26;102835.16;;;4.50;59.77
75585;BME280;64162;53.508;10.476;2023-02-28T10:12:01;102837.75;;;4.52;60.12
75585;BME280;64162;53.508;10.476;2023-02-28T10:14:33;102831.78;;;4.45;60.36
75585;BME280;64162;53.508;10.476;2023-02-28T10:17:10;102822.69;;;4.63;59.94
75585;BME280;64162;53.508;10.476;2023-02-28T10:22:29;102831.03;;;4.82;60.08
75585;BME280;64162;53.508;10.476;2023-02-28T10:25:00;102823.81;;;4.93;59.17
75585;BME280;64162;53.508;10.476;2023-02-28T10:27:31;102825.59;;;4.91;60.08
75585;BME280;64162;53.508;10.476;2023-02-28T10:30:00;102821.00;;;5.02;59.79
75585;BME280;64162;53.508;10.476;2023-02-28T10:32:30;102823.75;;;4.96;59.41
75585;BME280;64162;53.508;10.476;2023-02-28T10:37:38;102818.91;;;5.18;58.07
75585;BME280;64162;53.508;10.476;2023-02-28T10:40:07;102823.59;;;5.04;58.75
75585;BME280;64162;53.508;10.476;2023-02-28T10:43:26;102826.72;;;5.19;56.70
75585;BME280;64162;53.508;10.476;2023-02-28T10:51:12;102821.75;;;5.44;55.68
75585;BME280;64162;53.508;10.476;2023-02-28T10:56:25;102812.22;;;5.42;55.48
75585;BME280;64162;53.508;10.476;2023-02-28T11:03:58;102821.41;;;5.59;55.58
75585;BME280;64162;53.508;10.476;2023-02-28T11:06:30;102822.63;;;5.45;54.71
75585;BME280;64162;53.508;10.476;2023-02-28T11:09:00;102829.81;;;5.72;53.44
75585;BME280;64162;53.508;10.476;2023-02-28T11:11:29;102825.13;;;5.83;53.27
75585;BME280;64162;53.508;10.476;2023-02-28T11:14:04;102823.91;;;5.98;53.07
75585;BME280;64162;53.508;10.476;2023-02-28T11:16:36;102824.06;;;5.92;51.60
75585;BME280;64162;53.508;10.476;2023-02-28T11:19:06;102819.66;;;5.94;52.00
75585;BME280;64162;53.508;10.476;2023-02-28T11:21:50;102814.09;;;6.06;52.05
75585;BME280;64162;53.508;10.476;2023-02-28T11:24:28;102818.94;;;6.21;50.74
75585;BME280;64162;53.508;10.476;2023-02-28T11:26:56;102814.41;;;6.28;49.36
75585;BME280;64162;53.508;10.476;2023-02-28T11:29:24;102815.09;;;6.35;48.67
75585;BME280;64162;53.508;10.476;2023-02-28T11:32:15;102807.06;;;6.39;48.62
75585;BME280;64162;53.508;10.476;2023-02-28T11:34:44;102806.06;;;6.45;48.80
75585;BME280;64162;53.508;10.476;2023-02-28T11:37:16;102804.94;;;6.53;48.41
75585;BME280;64162;53.508;10.476;2023-02-28T11:39:45;102796.94;;;6.58;48.19
75585;BME280;64162;53.508;10.476;2023-02-28T11:42:35;102800.34;;;6.61;48.25
75585;BME280;64162;53.508;10.476;2023-02-28T11:48:18;102798.53;;;6.63;46.92
75585;BME280;64162;53.508;10.476;2023-02-28T11:50:54;102793.88;;;6.73;47.56
75585;BME280;64162;53.508;10.476;2023-02-28T11:56:05;102794.28;;;6.89;47.20
75585;BME280;64162;53.508;10.476;2023-02-28T12:04:25;102778.78;;;6.81;45.50
75585;BME280;64162;53.508;10.476;2023-02-28T12:12:30;102778.06;;;7.04;44.33
75585;BME280;64162;53.508;10.476;2023-02-28T12:17:55;102767.16;;;7.18;46.61
75585;BME280;64162;53.508;10.476;2023-02-28T12:20:37;102773.19;;;7.20;44.58
75585;BME280;64162;53.508;10.476;2023-02-28T12:28:51;102748.41;;;7.30;45.89
75585;BME280;64162;53.508;10.476;2023-02-28T12:31:36;102747.44;;;7.33;46.64
75585;BME280;64162;53.508;10.476;2023-02-28T12:34:10;102745.59;;;7.36;46.20
75585;BME280;64162;53.508;10.476;2023-02-28T12:36:39;102735.16;;;7.35;46.22
75585;BME280;64162;53.508;10.476;2023-02-28T12:39:23;102742.31;;;7.29;45.81
75585;BME280;64162;53.508;10.476;2023-02-28T12:42:07;102732.50;;;7.08;46.06
75585;BME280;64162;53.508;10.476;2023-02-28T12:44:55;102735.53;;;7.22;45.38
75585;BME280;64162;53.508;10.476;2023-02-28T12:47:23;102726.00;;;7.20;45.43
75585;BME280;64162;53.508;10.476;2023-02-28T12:50:00;102721.69;;;7.19;45.99
75585;BME280;64162;53.508;10.476;2023-02-28T12:52:40;102721.38;;;7.28;45.64
75585;BME280;64162;53.508;10.476;2023-02-28T12:55:35;102717.00;;;7.28;45.70
75585;BME280;64162;53.508;10.476;2023-02-28T12:58:27;102705.66;;;7.28;45.80
75585;BME280;64162;53.508;10.476;2023-02-28T13:11:24;102680.88;;;7.37;45.75
75585;BME280;64162;53.508;10.476;2023-02-28T13:14:01;102675.16;;;7.25;45.08
75585;BME280;64162;53.508;10.476;2023-02-28T13:19:31;102680.03;;;7.36;44.87
75585;BME280;64162;53.508;10.476;2023-02-28T13:21:59;102681.00;;;7.34;45.19
75585;BME280;64162;53.508;10.476;2023-02-28T13:27:21;102685.94;;;7.16;42.07
75585;BME280;64162;53.508;10.476;2023-02-28T13:29:52;102688.16;;;7.02;41.18
75585;BME280;64162;53.508;10.476;2023-02-28T13:32:29;102686.78;;;7.17;42.16
75585;BME280;64162;53.508;10.476;2023-02-28T13:39:58;102688.16;;;7.28;40.70
75585;BME280;64162;53.508;10.476;2023-02-28T13:55:45;102684.22;;;7.42;39.09
75585;BME280;64162;53.508;10.476;2023-02-28T14:01:16;102685.31;;;7.59;37.61
75585;BME280;64162;53.508;10.476;2023-02-28T14:06:37;102681.38;;;7.48;38.82
75585;BME280;64162;53.508;10.476;2023-02-28T14:09:16;102684.72;;;7.51;39.49
75585;BME280;64162;53.508;10.476;2023-02-28T14:11:45;102682.03;;;7.53;38.79
75585;BME280;64162;53.508;10.476;2023-02-28T14:17:13;102690.25;;;7.44;39.51
75585;BME280;64162;53.508;10.476;2023-02-28T14:19:44;102688.91;;;7.57;39.94
75585;BME280;64162;53.508;10.476;2023-02-28T14:22:39;102689.91;;;7.53;40.23
75585;BME280;64162;53.508;10.476;2023-02-28T14:25:16;102693.75;;;7.44;38.96
75585;BME280;64162;53.508;10.476;2023-02-28T14:31:08;102692.44;;;7.56;38.73
75585;BME280;64162;53.508;10.476;2023-02-28T14:34:04;102688.75;;;7.61;39.02
75585;BME280;64162;53.508;10.476;2023-02-28T14:36:41;102689.34;;;7.70;39.71
75585;BME280;64162;53.508;10.476;2023-02-28T14:39:17;102697.84;;;7.51;39.91
75585;BME280;64162;53.508;10.476;2023-02-28T14:41:48;102690.41;;;7.64;40.85
75585;BME280;64162;53.508;10.476;2023-02-28T14:44:21;102691.31;;;7.63;39.84
75585;BME280;64162;53.508;10.476;2023-02-28T14:46:57;102679.66;;;7.47;39.80
75585;BME280;64162;53.508;10.476;2023-02-28T14:49:32;102689.66;;;7.60;41.00
75585;BME280;64162;53.508;10.476;2023-02-28T14:52:22;102688.38;;;7.47;40.86
75585;BME280;64162;53.508;10.476;2023-02-28T14:55:04;102683.09;;;7.49;40.71
75585;BME280;64162;53.508;10.476;2023-02-28T14:57:41;102684.09;;;7.45;40.76
75585;BME280;64162;53.508;10.476;2023-02-28T15:00:20;102681.84;;;7.34;40.75
75585;BME280;64162;53.508;10.476;2023-02-28T15:02:48;102677.50;;;7.33;41.69
75585;BME280;64162;53.508;10.476;2023-02-28T15:07:45;102675.59;;;7.12;41.76
75585;BME280;64162;53.508;10.476;2023-02-28T15:10:22;102675.03;;;7.28;41.93
75585;BME280;64162;53.508;10.476;2023-02-28T15:12:55;102670.81;;;7.24;41.42
75585;BME280;64162;53.508;10.476;2023-02-28T15:15:30;102670.59;;;7.31;41.73
75585;BME280;64162;53.508;10.476;2023-02-28T15:18:06;102660.06;;;7.32;42.16
75585;BME280;64162;53.508;10.476;2023-02-28T15:20:35;102668.94;;;7.28;41.68
75585;BME280;64162;53.508;10.476;2023-02-28T15:23:05;102664.56;;;7.28;42.16
75585;BME280;64162;53.508;10.476;2023-02-28T15:25:32;102654.88;;;7.31;42.21
75585;BME280;64162;53.508;10.476;2023-02-28T15:27:58;102655.28;;;7.18;40.99
75585;BME280;64162;53.508;10.476;2023-02-28T15:30:30;102643.94;;;7.18;41.93
75585;BME280;64162;53.508;10.476;2023-02-28T15:35:39;102643.19;;;7.14;41.65
75585;BME280;64162;53.508;10.476;2023-02-28T15:40:44;102645.25;;;7.05;42.65